sensor_id;sensor_type;location;lat;lon;timestamp;P1;durP1;ratioP1;P2;durP2;ratioP2
15454;SDS011;21057;51.024;7.540;2022-09-24T00:00:38;19.60;;;18.10;;
15454;SDS011;21057;51.024;7.540;2022-09-24T00:03:05;19.60;;;18.30;;
15454;SDS011;21057;51.024;7.540;2022-09-24T00:05:35;18.63;;;17.43;;
15454;SDS011;21057;51.024;7.540;2022-09-24T00:08:04;18.80;;;17.57;;
15454;SDS011;21057;51.024;7.540;2022-09-24T00:10:34;18.87;;;17.47;;
15454;SDS011;21057;51.024;7.540;2022-09-24T00:13:02;18.53;;;17.33;;
15454;SDS011;21057;51.024;7.540;2022-09-24T00:15:29;18.67;;;17.47;;
15454;SDS011;21057;51.024;7.540;2022-09-24T00:17:56;18.77;;;17.30;;
15454;SDS011;21057;51.024;7.540;2022-09-24T00:20:23;18.87;;;17.60;;
15454;SDS011;21057;51.024;7.540;2022-09-24T00:22:50;19.03;;;17.50;;
15454;SDS011;21057;51.024;7.540;2022-09-24T00:25:18;17.87;;;16.77;;
15454;SDS011;21057;51.024;7.540;2022-09-24T00:28:02;18.10;;;16.90;;
15454;SDS011;21057;51.024;7.540;2022-09-24T00:30:29;18.70;;;17.37;;
15454;SDS011;21057;51.024;7.540;2022-09-24T00:32:56;17.70;;;16.60;;
15454;SDS011;21057;51.024;7.540;2022-09-24T00:35:23;18.93;;;17.50;;
15454;SDS011;21057;51.024;7.540;2022-09-24T00:37:50;18.07;;;16.70;;
15454;SDS011;21057;51.024;7.540;2022-09-24T00:40:18;18.07;;;16.77;;
15454;SDS011;21057;51.024;7.540;2022-09-24T00:42:45;18.33;;;17.03;;
15454;SDS011;21057;51.024;7.540;2022-09-24T00:45:12;17.97;;;16.87;;
15454;SDS011;21057;51.024;7.540;2022-09-24T00:47:40;18.10;;;17.00;;
15454;SDS011;21057;51.024;7.540;2022-09-24T00:50:13;17.87;;;16.63;;
15454;SDS011;21057;51.024;7.540;2022-09-24T00:52:44;19.07;;;17.77;;
15454;SDS011;21057;51.024;7.540;2022-09-24T00:55:15;18.10;;;17.07;;
15454;SDS011;21057;51.024;7.540;2022-09-24T00:57:45;17.83;;;16.73;;
15454;SDS011;21057;51.024;7.540;2022-09-24T01:00:14;17.50;;;16.50;;
15454;SDS011;21057;51.024;7.540;2022-09-24T01:02:42;17.80;;;16.80;;
15454;SDS011;21057;51.024;7.540;2022-09-24T01:05:12;18.20;;;16.93;;
15454;SDS011;21057;51.024;7.540;2022-09-24T01:07:38;17.43;;;16.43;;
15454;SDS011;21057;51.024;7.540;2022-09-24T01:10:05;17.77;;;16.60;;
15454;SDS011;21057;51.024;7.540;2022-09-24T01:12:34;18.40;;;17.27;;
15454;SDS011;21057;51.024;7.540;2022-09-24T01:15:11;18.07;;;16.87;;
15454;SDS011;21057;51.024;7.540;2022-09-24T01:17:46;17.60;;;16.40;;
15454;SDS011;21057;51.024;7.540;2022-09-24T01:23:50;17.57;;;16.37;;
15454;SDS011;21057;51.024;7.540;2022-09-24T01:26:39;17.63;;;16.33;;
15454;SDS011;21057;51.024;7.540;2022-09-24T01:29:26;18.67;;;17.17;;
15454;SDS011;21057;51.024;7.540;2022-09-24T01:31:58;17.20;;;16.10;;
15454;SDS011;21057;51.024;7.540;2022-09-24T01:34:33;18.00;;;16.80;;
15454;SDS011;21057;51.024;7.540;2022-09-24T01:37:04;17.70;;;16.57;;
15454;SDS011;21057;51.024;7.540;2022-09-24T01:39:32;17.23;;;16.17;;
15454;SDS011;21057;51.024;7.540;2022-09-24T01:42:02;18.13;;;17.03;;
15454;SDS011;21057;51.024;7.540;2022-09-24T01:44:31;17.77;;;16.73;;
15454;SDS011;21057;51.024;7.540;2022-09-24T01:47:02;17.20;;;16.10;;
15454;SDS011;21057;51.024;7.540;2022-09-24T01:49:31;18.03;;;16.83;;
15454;SDS011;21057;51.024;7.540;2022-09-24T01:51:58;18.63;;;17.13;;
15454;SDS011;21057;51.024;7.540;2022-09-24T01:54:28;17.37;;;16.20;;
15454;SDS011;21057;51.024;7.540;2022-09-24T01:57:03;16.83;;;15.83;;
15454;SDS011;21057;51.024;7.540;2022-09-24T01:59:39;17.77;;;16.47;;
15454;SDS011;21057;51.024;7.540;2022-09-24T02:02:11;18.30;;;17.13;;
15454;SDS011;21057;51.024;7.540;2022-09-24T02:04:42;18.13;;;16.80;;
15454;SDS011;21057;51.024;7.540;2022-09-24T02:07:13;18.80;;;17.60;;
15454;SDS011;21057;51.024;7.540;2022-09-24T02:09:46;18.13;;;16.77;;
15454;SDS011;21057;51.024;7.540;2022-09-24T02:12:14;18.43;;;17.03;;
15454;SDS011;21057;51.024;7.540;2022-09-24T02:14:48;17.93;;;16.87;;
15454;SDS011;21057;51.024;7.540;2022-09-24T02:17:18;18.20;;;17.10;;
15454;SDS011;21057;51.024;7.540;2022-09-24T02:19:46;17.17;;;16.17;;
15454;SDS011;21057;51.024;7.540;2022-09-24T02:22:15;15.90;;;14.97;;
15454;SDS011;21057;51.024;7.540;2022-09-24T02:24:43;17.37;;;16.27;;
15454;SDS011;21057;51.024;7.540;2022-09-24T02:27:13;18.80;;;17.50;;
15454;SDS011;21057;51.024;7.540;2022-09-24T02:29:40;17.83;;;16.73;;
15454;SDS011;21057;51.024;7.540;2022-09-24T02:32:10;18.20;;;17.00;;
15454;SDS011;21057;51.024;7.540;2022-09-24T02:34:40;17.77;;;16.67;;
15454;SDS011;21057;51.024;7.540;2022-09-24T02:37:11;18.50;;;17.20;;
15454;SDS011;21057;51.024;7.540;2022-09-24T02:40:00;17.77;;;16.70;;
15454;SDS011;21057;51.024;7.540;2022-09-24T02:42:27;17.77;;;16.67;;
15454;SDS011;21057;51.024;7.540;2022-09-24T02:44:55;18.40;;;17.10;;
15454;SDS011;21057;51.024;7.540;2022-09-24T02:47:24;17.43;;;16.40;;
15454;SDS011;21057;51.024;7.540;2022-09-24T02:49:53;17.60;;;16.60;;
15454;SDS011;21057;51.024;7.540;2022-09-24T02:52:20;18.73;;;17.57;;
15454;SDS011;21057;51.024;7.540;2022-09-24T02:54:47;18.73;;;17.30;;
15454;SDS011;21057;51.024;7.540;2022-09-24T02:57:15;17.67;;;16.60;;
15454;SDS011;21057;51.024;7.540;2022-09-24T02:59:42;18.03;;;16.83;;
15454;SDS011;21057;51.024;7.540;2022-09-24T03:02:09;19.03;;;17.77;;
15454;SDS011;21057;51.024;7.540;2022-09-24T03:04:37;18.53;;;17.23;;
15454;SDS011;21057;51.024;7.540;2022-09-24T03:07:04;18.23;;;17.10;;
15454;SDS011;21057;51.024;7.540;2022-09-24T03:09:31;18.83;;;17.63;;
15454;SDS011;21057;51.024;7.540;2022-09-24T03:11:58;18.33;;;17.13;;
15454;SDS011;21057;51.024;7.540;2022-09-24T03:14:25;18.40;;;17.30;;
15454;SDS011;21057;51.024;7.540;2022-09-24T03:16:52;18.47;;;17.33;;
15454;SDS011;21057;51.024;7.540;2022-09-24T03:19:19;18.83;;;17.53;;
15454;SDS011;21057;51.024;7.540;2022-09-24T03:21:47;19.33;;;18.03;;
15454;SDS011;21057;51.024;7.540;2022-09-24T03:24:14;18.87;;;17.67;;
15454;SDS011;21057;51.024;7.540;2022-09-24T03:26:41;18.33;;;17.13;;
15454;SDS011;21057;51.024;7.540;2022-09-24T03:29:08;19.93;;;18.73;;
15454;SDS011;21057;51.024;7.540;2022-09-24T03:31:35;18.30;;;17.10;;
15454;SDS011;21057;51.024;7.540;2022-09-24T03:34:01;18.97;;;17.83;;
15454;SDS011;21057;51.024;7.540;2022-09-24T03:36:28;18.63;;;17.53;;
15454;SDS011;21057;51.024;7.540;2022-09-24T03:38:56;18.20;;;16.90;;
15454;SDS011;21057;51.024;7.540;2022-09-24T03:41:23;18.90;;;17.70;;
15454;SDS011;21057;51.024;7.540;2022-09-24T03:43:51;18.87;;;17.73;;
15454;SDS011;21057;51.024;7.540;2022-09-24T03:46:18;19.83;;;18.53;;
15454;SDS011;21057;51.024;7.540;2022-09-24T03:48:46;19.03;;;17.83;;
15454;SDS011;21057;51.024;7.540;2022-09-24T03:51:14;19.27;;;17.97;;
15454;SDS011;21057;51.024;7.540;2022-09-24T03:53:42;22.67;;;17.87;;
15454;SDS011;21057;51.024;7.540;2022-09-24T03:56:11;18.10;;;17.10;;
15454;SDS011;21057;51.024;7.540;2022-09-24T03:58:38;20.27;;;18.80;;
15454;SDS011;21057;51.024;7.540;2022-09-24T04:01:06;18.00;;;16.90;;
15454;SDS011;21057;51.024;7.540;2022-09-24T04:03:34;18.13;;;16.93;;
15454;SDS011;21057;51.024;7.540;2022-09-24T04:06:02;19.17;;;17.97;;
15454;SDS011;21057;51.024;7.540;2022-09-24T04:08:29;18.70;;;17.60;;
15454;SDS011;21057;51.024;7.540;2022-09-24T04:10:57;18.83;;;17.67;;
15454;SDS011;21057;51.024;7.540;2022-09-24T04:13:25;18.53;;;17.43;;
15454;SDS011;21057;51.024;7.540;2022-09-24T04:15:53;17.87;;;16.77;;
15454;SDS011;21057;51.024;7.540;2022-09-24T04:18:20;19.70;;;18.40;;
15454;SDS011;21057;51.024;7.540;2022-09-24T04:20:47;18.23;;;17.10;;
15454;SDS011;21057;51.024;7.540;2022-09-24T04:23:14;19.20;;;17.93;;
15454;SDS011;21057;51.024;7.540;2022-09-24T04:25:41;18.57;;;17.43;;
15454;SDS011;21057;51.024;7.540;2022-09-24T04:28:08;17.83;;;16.73;;
15454;SDS011;21057;51.024;7.540;2022-09-24T04:30:37;18.10;;;17.00;;
15454;SDS011;21057;51.024;7.540;2022-09-24T04:33:04;18.67;;;17.00;;
15454;SDS011;21057;51.024;7.540;2022-09-24T04:35:32;18.33;;;17.13;;
15454;SDS011;21057;51.024;7.540;2022-09-24T04:38:00;18.03;;;16.93;;
15454;SDS011;21057;51.024;7.540;2022-09-24T04:40:28;19.27;;;17.97;;
15454;SDS011;21057;51.024;7.540;2022-09-24T04:42:55;18.33;;;17.33;;
15454;SDS011;21057;51.024;7.540;2022-09-24T04:45:22;18.17;;;16.97;;
15454;SDS011;21057;51.024;7.540;2022-09-24T04:47:52;18.13;;;16.90;;
15454;SDS011;21057;51.024;7.540;2022-09-24T04:50:20;18.17;;;17.07;;
15454;SDS011;21057;51.024;7.540;2022-09-24T04:52:47;17.50;;;16.50;;
15454;SDS011;21057;51.024;7.540;2022-09-24T04:55:14;18.30;;;17.00;;
15454;SDS011;21057;51.024;7.540;2022-09-24T04:57:41;17.40;;;16.40;;
15454;SDS011;21057;51.024;7.540;2022-09-24T05:00:11;18.90;;;17.17;;
15454;SDS011;21057;51.024;7.540;2022-09-24T05:02:40;18.00;;;17.00;;
15454;SDS011;21057;51.024;7.540;2022-09-24T05:05:09;17.93;;;16.90;;
15454;SDS011;21057;51.024;7.540;2022-09-24T05:07:37;18.50;;;17.23;;
15454;SDS011;21057;51.024;7.540;2022-09-24T05:10:05;19.00;;;17.40;;
15454;SDS011;21057;51.024;7.540;2022-09-24T05:12:32;17.37;;;16.27;;
15454;SDS011;21057;51.024;7.540;2022-09-24T05:15:00;17.87;;;16.40;;
15454;SDS011;21057;51.024;7.540;2022-09-24T05:17:28;18.80;;;16.93;;
15454;SDS011;21057;51.024;7.540;2022-09-24T05:19:55;18.03;;;17.03;;
15454;SDS011;21057;51.024;7.540;2022-09-24T05:22:25;18.40;;;17.20;;
15454;SDS011;21057;51.024;7.540;2022-09-24T05:24:52;19.13;;;17.93;;
15454;SDS011;21057;51.024;7.540;2022-09-24T05:27:19;18.50;;;17.47;;
15454;SDS011;21057;51.024;7.540;2022-09-24T05:29:46;18.80;;;17.70;;
15454;SDS011;21057;51.024;7.540;2022-09-24T05:32:15;18.10;;;17.00;;
15454;SDS011;21057;51.024;7.540;2022-09-24T05:34:43;17.57;;;16.57;;
15454;SDS011;21057;51.024;7.540;2022-09-24T05:37:12;18.30;;;16.73;;
15454;SDS011;21057;51.024;7.540;2022-09-24T05:39:41;17.47;;;16.40;;
15454;SDS011;21057;51.024;7.540;2022-09-24T05:42:08;16.93;;;15.93;;
15454;SDS011;21057;51.024;7.540;2022-09-24T05:44:37;18.73;;;17.37;;
15454;SDS011;21057;51.024;7.540;2022-09-24T05:47:04;18.07;;;16.60;;
15454;SDS011;21057;51.024;7.540;2022-09-24T05:49:31;18.10;;;17.00;;
15454;SDS011;21057;51.024;7.540;2022-09-24T05:51:59;17.43;;;16.43;;
15454;SDS011;21057;51.024;7.540;2022-09-24T05:54:26;17.00;;;16.00;;
15454;SDS011;21057;51.024;7.540;2022-09-24T05:56:54;17.50;;;16.37;;
15454;SDS011;21057;51.024;7.540;2022-09-24T05:59:21;16.63;;;15.63;;
15454;SDS011;21057;51.024;7.540;2022-09-24T06:01:49;17.27;;;16.07;;
15454;SDS011;21057;51.024;7.540;2022-09-24T06:04:16;17.50;;;16.40;;
15454;SDS011;21057;51.024;7.540;2022-09-24T06:06:43;17.37;;;16.27;;
15454;SDS011;21057;51.024;7.540;2022-09-24T06:09:09;17.23;;;16.23;;
15454;SDS011;21057;51.024;7.540;2022-09-24T06:11:37;17.03;;;16.03;;
15454;SDS011;21057;51.024;7.540;2022-09-24T06:14:05;16.73;;;15.73;;
15454;SDS011;21057;51.024;7.540;2022-09-24T06:16:32;17.43;;;16.43;;
15454;SDS011;21057;51.024;7.540;2022-09-24T06:18:59;18.20;;;17.10;;
15454;SDS011;21057;51.024;7.540;2022-09-24T06:21:26;19.17;;;17.97;;
15454;SDS011;21057;51.024;7.540;2022-09-24T06:23:53;18.37;;;17.20;;
15454;SDS011;21057;51.024;7.540;2022-09-24T06:26:20;18.67;;;17.47;;
15454;SDS011;21057;51.024;7.540;2022-09-24T06:28:47;16.73;;;15.47;;
15454;SDS011;21057;51.024;7.540;2022-09-24T06:31:15;16.80;;;15.43;;
15454;SDS011;21057;51.024;7.540;2022-09-24T06:33:42;17.30;;;16.10;;
15454;SDS011;21057;51.024;7.540;2022-09-24T06:36:09;16.80;;;15.73;;
15454;SDS011;21057;51.024;7.540;2022-09-24T06:38:36;17.67;;;16.57;;
15454;SDS011;21057;51.024;7.540;2022-09-24T06:41:05;17.53;;;16.33;;
15454;SDS011;21057;51.024;7.540;2022-09-24T06:43:33;18.17;;;16.67;;
15454;SDS011;21057;51.024;7.540;2022-09-24T06:46:00;17.33;;;15.97;;
15454;SDS011;21057;51.024;7.540;2022-09-24T06:48:30;17.53;;;16.00;;
15454;SDS011;21057;51.024;7.540;2022-09-24T06:50:57;17.90;;;16.73;;
15454;SDS011;21057;51.024;7.540;2022-09-24T06:53:24;18.63;;;17.37;;
15454;SDS011;21057;51.024;7.540;2022-09-24T06:55:54;17.77;;;16.60;;
15454;SDS011;21057;51.024;7.540;2022-09-24T06:58:21;17.80;;;16.60;;
15454;SDS011;21057;51.024;7.540;2022-09-24T07:00:49;18.43;;;17.07;;
15454;SDS011;21057;51.024;7.540;2022-09-24T07:03:18;17.43;;;16.23;;
15454;SDS011;21057;51.024;7.540;2022-09-24T07:05:47;17.37;;;16.30;;
15454;SDS011;21057;51.024;7.540;2022-09-24T07:08:14;18.20;;;16.80;;
15454;SDS011;21057;51.024;7.540;2022-09-24T07:10:42;17.07;;;15.97;;
15454;SDS011;21057;51.024;7.540;2022-09-24T07:13:10;19.33;;;18.03;;
15454;SDS011;21057;51.024;7.540;2022-09-24T07:15:38;18.13;;;16.83;;
15454;SDS011;21057;51.024;7.540;2022-09-24T07:18:05;18.80;;;17.43;;
15454;SDS011;21057;51.024;7.540;2022-09-24T07:20:32;18.00;;;16.70;;
15454;SDS011;21057;51.024;7.540;2022-09-24T07:23:02;19.63;;;18.33;;
15454;SDS011;21057;51.024;7.540;2022-09-24T07:25:29;19.23;;;17.93;;
15454;SDS011;21057;51.024;7.540;2022-09-24T07:27:59;17.77;;;16.57;;
15454;SDS011;21057;51.024;7.540;2022-09-24T07:30:28;18.47;;;17.17;;
15454;SDS011;21057;51.024;7.540;2022-09-24T07:32:55;18.80;;;17.40;;
15454;SDS011;21057;51.024;7.540;2022-09-24T07:35:23;20.20;;;18.63;;
15454;SDS011;21057;51.024;7.540;2022-09-24T07:37:56;20.77;;;19.47;;
15454;SDS011;21057;51.024;7.540;2022-09-24T07:40:25;19.43;;;18.20;;
15454;SDS011;21057;51.024;7.540;2022-09-24T07:42:53;20.40;;;19.10;;
15454;SDS011;21057;51.024;7.540;2022-09-24T07:45:21;20.67;;;19.00;;
15454;SDS011;21057;51.024;7.540;2022-09-24T07:47:54;20.93;;;19.43;;
15454;SDS011;21057;51.024;7.540;2022-09-24T07:50:22;21.63;;;20.10;;
15454;SDS011;21057;51.024;7.540;2022-09-24T07:52:49;20.27;;;18.87;;
15454;SDS011;21057;51.024;7.540;2022-09-24T07:55:16;20.67;;;18.87;;
15454;SDS011;21057;51.024;7.540;2022-09-24T07:57:48;20.10;;;18.70;;
15454;SDS011;21057;51.024;7.540;2022-09-24T08:00:20;19.13;;;17.83;;
15454;SDS011;21057;51.024;7.540;2022-09-24T08:02:50;19.57;;;18.17;;
15454;SDS011;21057;51.024;7.540;2022-09-24T08:05:18;18.80;;;17.40;;
15454;SDS011;21057;51.024;7.540;2022-09-24T08:07:49;20.13;;;18.63;;
15454;SDS011;21057;51.024;7.540;2022-09-24T08:10:16;20.70;;;19.30;;
15454;SDS011;21057;51.024;7.540;2022-09-24T08:12:43;19.43;;;18.03;;
15454;SDS011;21057;51.024;7.540;2022-09-24T08:15:12;18.10;;;16.93;;
15454;SDS011;21057;51.024;7.540;2022-09-24T08:17:40;20.27;;;18.43;;
15454;SDS011;21057;51.024;7.540;2022-09-24T08:20:09;18.90;;;17.50;;
15454;SDS011;21057;51.024;7.540;2022-09-24T08:22:37;20.47;;;18.53;;
15454;SDS011;21057;51.024;7.540;2022-09-24T08:25:04;18.97;;;17.63;;
15454;SDS011;21057;51.024;7.540;2022-09-24T08:27:32;19.40;;;17.90;;
15454;SDS011;21057;51.024;7.540;2022-09-24T08:30:01;19.50;;;17.73;;
15454;SDS011;21057;51.024;7.540;2022-09-24T08:32:29;20.33;;;18.87;;
15454;SDS011;21057;51.024;7.540;2022-09-24T08:34:56;21.03;;;19.33;;
15454;SDS011;21057;51.024;7.540;2022-09-24T08:37:23;20.27;;;18.77;;
15454;SDS011;21057;51.024;7.540;2022-09-24T08:39:52;20.23;;;18.73;;
15454;SDS011;21057;51.024;7.540;2022-09-24T08:42:23;20.70;;;19.10;;
15454;SDS011;21057;51.024;7.540;2022-09-24T08:44:58;20.13;;;18.67;;
15454;SDS011;21057;51.024;7.540;2022-09-24T08:47:50;21.50;;;19.30;;
15454;SDS011;21057;51.024;7.540;2022-09-24T08:50:21;19.23;;;17.73;;
15454;SDS011;21057;51.024;7.540;2022-09-24T08:52:58;19.48;;;18.17;;
15454;SDS011;21057;51.024;7.540;2022-09-24T08:55:36;19.70;;;18.20;;
15454;SDS011;21057;51.024;7.540;2022-09-24T08:58:24;20.52;;;18.73;;
15454;SDS011;21057;51.024;7.540;2022-09-24T09:00:57;20.58;;;18.92;;
15454;SDS011;21057;51.024;7.540;2022-09-24T09:03:33;19.85;;;18.33;;
15454;SDS011;21057;51.024;7.540;2022-09-24T09:06:02;21.75;;;19.45;;
15454;SDS011;21057;51.024;7.540;2022-09-24T09:08:38;20.85;;;19.15;;
15454;SDS011;21057;51.024;7.540;2022-09-24T09:11:13;21.05;;;19.00;;
15454;SDS011;21057;51.024;7.540;2022-09-24T09:13:45;20.40;;;18.63;;
15454;SDS011;21057;51.024;7.540;2022-09-24T09:16:20;22.13;;;20.27;;
15454;SDS011;21057;51.024;7.540;2022-09-24T09:18:51;21.63;;;19.80;;
15454;SDS011;21057;51.024;7.540;2022-09-24T09:21:25;22.52;;;20.63;;
15454;SDS011;21057;51.024;7.540;2022-09-24T09:23:56;20.85;;;19.05;;
15454;SDS011;21057;51.024;7.540;2022-09-24T09:26:26;22.08;;;19.95;;
15454;SDS011;21057;51.024;7.540;2022-09-24T09:28:54;21.45;;;19.45;;
15454;SDS011;21057;51.024;7.540;2022-09-24T09:31:30;21.48;;;19.45;;
15454;SDS011;21057;51.024;7.540;2022-09-24T09:34:12;22.40;;;20.48;;
15454;SDS011;21057;51.024;7.540;2022-09-24T09:36:56;27.50;;;22.00;;
15454;SDS011;21057;51.024;7.540;2022-09-24T09:39:32;21.98;;;19.88;;
15454;SDS011;21057;51.024;7.540;2022-09-24T09:42:07;22.00;;;19.73;;
15454;SDS011;21057;51.024;7.540;2022-09-24T09:44:44;21.58;;;19.73;;
15454;SDS011;21057;51.024;7.540;2022-09-24T09:47:14;23.02;;;20.60;;
15454;SDS011;21057;51.024;7.540;2022-09-24T09:49:49;26.35;;;21.08;;
15454;SDS011;21057;51.024;7.540;2022-09-24T09:52:19;21.55;;;19.55;;
15454;SDS011;21057;51.024;7.540;2022-09-24T09:54:49;21.83;;;19.75;;
15454;SDS011;21057;51.024;7.540;2022-09-24T09:57:17;22.70;;;20.42;;
15454;SDS011;21057;51.024;7.540;2022-09-24T09:59:48;22.63;;;20.50;;
15454;SDS011;21057;51.024;7.540;2022-09-24T10:02:20;24.00;;;21.60;;
15454;SDS011;21057;51.024;7.540;2022-09-24T10:04:52;23.77;;;21.50;;
15454;SDS011;21057;51.024;7.540;2022-09-24T10:07:21;23.02;;;20.73;;
15454;SDS011;21057;51.024;7.540;2022-09-24T10:09:57;23.38;;;21.05;;
15454;SDS011;21057;51.024;7.540;2022-09-24T10:12:29;24.52;;;21.92;;
15454;SDS011;21057;51.024;7.540;2022-09-24T10:15:00;23.02;;;20.40;;
15454;SDS011;21057;51.024;7.540;2022-09-24T10:17:29;22.60;;;20.50;;
15454;SDS011;21057;51.024;7.540;2022-09-24T10:20:00;22.95;;;20.52;;
15454;SDS011;21057;51.024;7.540;2022-09-24T10:22:32;22.35;;;20.25;;
15454;SDS011;21057;51.024;7.540;2022-09-24T10:25:03;22.38;;;20.08;;
15454;SDS011;21057;51.024;7.540;2022-09-24T10:27:31;22.17;;;20.17;;
15454;SDS011;21057;51.024;7.540;2022-09-24T10:30:00;21.75;;;19.75;;
15454;SDS011;21057;51.024;7.540;2022-09-24T10:32:46;22.58;;;20.42;;
15454;SDS011;21057;51.024;7.540;2022-09-24T10:35:24;23.00;;;20.30;;
15454;SDS011;21057;51.024;7.540;2022-09-24T10:37:53;22.17;;;20.27;;
15454;SDS011;21057;51.024;7.540;2022-09-24T10:40:22;21.70;;;19.80;;
15454;SDS011;21057;51.024;7.540;2022-09-24T10:42:55;22.65;;;20.20;;
15454;SDS011;21057;51.024;7.540;2022-09-24T10:45:27;21.38;;;19.30;;
15454;SDS011;21057;51.024;7.540;2022-09-24T10:48:05;20.30;;;18.60;;
15454;SDS011;21057;51.024;7.540;2022-09-24T10:50:43;22.48;;;20.38;;
15454;SDS011;21057;51.024;7.540;2022-09-24T10:53:17;21.92;;;19.70;;
15454;SDS011;21057;51.024;7.540;2022-09-24T10:55:55;23.00;;;19.77;;
15454;SDS011;21057;51.024;7.540;2022-09-24T10:58:35;22.30;;;20.05;;
15454;SDS011;21057;51.024;7.540;2022-09-24T11:01:21;19.33;;;17.73;;
15454;SDS011;21057;51.024;7.540;2022-09-24T11:04:00;20.08;;;18.27;;
15454;SDS011;21057;51.024;7.540;2022-09-24T11:06:56;21.30;;;19.08;;
15454;SDS011;21057;51.024;7.540;2022-09-24T11:09:48;21.38;;;19.33;;
15454;SDS011;21057;51.024;7.540;2022-09-24T11:12:24;21.27;;;19.25;;
15454;SDS011;21057;51.024;7.540;2022-09-24T11:15:05;21.08;;;19.08;;
15454;SDS011;21057;51.024;7.540;2022-09-24T11:17:48;20.52;;;18.50;;
15454;SDS011;21057;51.024;7.540;2022-09-24T11:20:26;21.08;;;19.27;;
15454;SDS011;21057;51.024;7.540;2022-09-24T11:23:05;21.25;;;19.27;;
15454;SDS011;21057;51.024;7.540;2022-09-24T11:25:56;19.70;;;18.08;;
15454;SDS011;21057;51.024;7.540;2022-09-24T11:31:33;20.48;;;18.50;;
15454;SDS011;21057;51.024;7.540;2022-09-24T11:34:07;21.58;;;19.58;;
15454;SDS011;21057;51.024;7.540;2022-09-24T11:36:55;21.63;;;19.58;;
15454;SDS011;21057;51.024;7.540;2022-09-24T11:39:35;20.02;;;18.35;;
15454;SDS011;21057;51.024;7.540;2022-09-24T11:42:14;21.38;;;19.38;;
15454;SDS011;21057;51.024;7.540;2022-09-24T11:48:04;21.10;;;19.23;;
15454;SDS011;21057;51.024;7.540;2022-09-24T11:50:46;20.00;;;18.40;;
15454;SDS011;21057;51.024;7.540;2022-09-24T11:53:22;20.25;;;18.50;;
15454;SDS011;21057;51.024;7.540;2022-09-24T11:55:57;21.58;;;18.65;;
15454;SDS011;21057;51.024;7.540;2022-09-24T11:58:27;20.50;;;18.60;;
15454;SDS011;21057;51.024;7.540;2022-09-24T12:00:58;20.55;;;18.50;;
15454;SDS011;21057;51.024;7.540;2022-09-24T12:03:32;20.52;;;18.60;;
15454;SDS011;21057;51.024;7.540;2022-09-24T12:06:06;20.45;;;18.48;;
15454;SDS011;21057;51.024;7.540;2022-09-24T12:08:37;20.17;;;18.25;;
15454;SDS011;21057;51.024;7.540;2022-09-24T12:11:12;20.58;;;18.67;;
15454;SDS011;21057;51.024;7.540;2022-09-24T12:13:43;20.33;;;18.48;;
15454;SDS011;21057;51.024;7.540;2022-09-24T12:16:14;19.90;;;18.13;;
15454;SDS011;21057;51.024;7.540;2022-09-24T12:18:44;19.40;;;17.90;;
15454;SDS011;21057;51.024;7.540;2022-09-24T12:21:18;20.08;;;18.33;;
15454;SDS011;21057;51.024;7.540;2022-09-24T12:23:50;20.10;;;18.33;;
15454;SDS011;21057;51.024;7.540;2022-09-24T12:26:20;20.15;;;18.27;;
15454;SDS011;21057;51.024;7.540;2022-09-24T12:28:50;19.63;;;17.88;;
15454;SDS011;21057;51.024;7.540;2022-09-24T12:31:40;20.02;;;18.42;;
15454;SDS011;21057;51.024;7.540;2022-09-24T12:34:33;20.80;;;18.90;;
15454;SDS011;21057;51.024;7.540;2022-09-24T12:37:08;20.67;;;18.85;;
15454;SDS011;21057;51.024;7.540;2022-09-24T12:39:44;20.60;;;18.63;;
15454;SDS011;21057;51.024;7.540;2022-09-24T12:42:19;20.98;;;18.95;;
15454;SDS011;21057;51.024;7.540;2022-09-24T12:44:47;19.52;;;17.92;;
15454;SDS011;21057;51.024;7.540;2022-09-24T12:47:18;20.25;;;18.38;;
15454;SDS011;21057;51.024;7.540;2022-09-24T12:49:49;24.67;;;19.63;;
15454;SDS011;21057;51.024;7.540;2022-09-24T12:52:23;20.92;;;18.92;;
15454;SDS011;21057;51.024;7.540;2022-09-24T12:54:58;23.80;;;21.10;;
15454;SDS011;21057;51.024;7.540;2022-09-24T12:57:30;21.67;;;19.65;;
15454;SDS011;21057;51.024;7.540;2022-09-24T13:00:00;23.45;;;20.77;;
15454;SDS011;21057;51.024;7.540;2022-09-24T13:02:30;21.40;;;19.33;;
15454;SDS011;21057;51.024;7.540;2022-09-24T13:05:14;22.30;;;20.10;;
15454;SDS011;21057;51.024;7.540;2022-09-24T13:07:53;22.50;;;20.27;;
15454;SDS011;21057;51.024;7.540;2022-09-24T13:10:23;21.77;;;19.67;;
15454;SDS011;21057;51.024;7.540;2022-09-24T13:12:53;21.25;;;19.25;;
15454;SDS011;21057;51.024;7.540;2022-09-24T13:15:23;22.45;;;20.15;;
15454;SDS011;21057;51.024;7.540;2022-09-24T13:18:04;21.38;;;19.25;;
15454;SDS011;21057;51.024;7.540;2022-09-24T13:20:42;22.67;;;20.50;;
15454;SDS011;21057;51.024;7.540;2022-09-24T13:23:10;22.38;;;20.38;;
15454;SDS011;21057;51.024;7.540;2022-09-24T13:25:39;22.35;;;20.23;;
15454;SDS011;21057;51.024;7.540;2022-09-24T13:28:21;21.77;;;19.75;;
15454;SDS011;21057;51.024;7.540;2022-09-24T13:30:50;21.63;;;19.92;;
15454;SDS011;21057;51.024;7.540;2022-09-24T13:33:23;21.50;;;19.45;;
15454;SDS011;21057;51.024;7.540;2022-09-24T13:36:03;22.50;;;20.38;;
15454;SDS011;21057;51.024;7.540;2022-09-24T13:38:37;22.08;;;20.15;;
15454;SDS011;21057;51.024;7.540;2022-09-24T13:41:15;22.50;;;20.20;;
15454;SDS011;21057;51.024;7.540;2022-09-24T13:43:51;21.88;;;20.15;;
15454;SDS011;21057;51.024;7.540;2022-09-24T13:46:25;22.35;;;20.55;;
15454;SDS011;21057;51.024;7.540;2022-09-24T13:48:54;22.20;;;20.20;;
15454;SDS011;21057;51.024;7.540;2022-09-24T13:51:26;22.20;;;20.30;;
15454;SDS011;21057;51.024;7.540;2022-09-24T13:53:56;21.00;;;19.30;;
15454;SDS011;21057;51.024;7.540;2022-09-24T13:56:28;22.38;;;20.23;;
15454;SDS011;21057;51.024;7.540;2022-09-24T13:59:03;22.48;;;20.63;;
15454;SDS011;21057;51.024;7.540;2022-09-24T14:01:35;21.45;;;19.65;;
15454;SDS011;21057;51.024;7.540;2022-09-24T14:04:06;23.38;;;19.75;;
15454;SDS011;21057;51.024;7.540;2022-09-24T14:06:42;22.35;;;20.25;;
15454;SDS011;21057;51.024;7.540;2022-09-24T14:09:16;23.52;;;21.52;;
15454;SDS011;21057;51.024;7.540;2022-09-24T14:11:53;22.20;;;20.38;;
15454;SDS011;21057;51.024;7.540;2022-09-24T14:14:24;21.55;;;19.80;;
15454;SDS011;21057;51.024;7.540;2022-09-24T14:16:53;21.50;;;19.67;;
15454;SDS011;21057;51.024;7.540;2022-09-24T14:19:30;22.15;;;20.30;;
15454;SDS011;21057;51.024;7.540;2022-09-24T14:21:58;21.08;;;19.02;;
15454;SDS011;21057;51.024;7.540;2022-09-24T14:24:27;22.20;;;20.20;;
15454;SDS011;21057;51.024;7.540;2022-09-24T14:26:58;21.63;;;19.92;;
15454;SDS011;21057;51.024;7.540;2022-09-24T14:29:31;21.07;;;19.57;;
15454;SDS011;21057;51.024;7.540;2022-09-24T14:32:03;22.00;;;20.13;;
15454;SDS011;21057;51.024;7.540;2022-09-24T14:34:33;22.90;;;20.90;;
15454;SDS011;21057;51.024;7.540;2022-09-24T14:37:06;21.60;;;19.77;;
15454;SDS011;21057;51.024;7.540;2022-09-24T14:39:36;22.38;;;20.52;;
15454;SDS011;21057;51.024;7.540;2022-09-24T14:42:07;22.83;;;20.83;;
15454;SDS011;21057;51.024;7.540;2022-09-24T14:44:39;27.25;;;24.23;;
15454;SDS011;21057;51.024;7.540;2022-09-24T14:47:19;22.40;;;20.37;;
15454;SDS011;21057;51.024;7.540;2022-09-24T14:49:50;23.83;;;21.80;;
15454;SDS011;21057;51.024;7.540;2022-09-24T14:52:24;21.47;;;19.77;;